SWR849W EDDL-LSZH
Flight info
| Callsign | SWR849W |
|---|---|
| Flight time | N/A |
| Altitude | 31000 |
| Route | DODEN7Z/05R DODEN Y852 TUSUK DCT ULNOK L607 SUNEG T721 LAMGO/N0391F270 T721 RILAX |
| Aircraft | A21N/M-SDE2E3FGHIJ1RWXY/LB1 |
Departure
| Time | N/A |
|---|---|
| Airport | Düsseldorf Airport (EDDL) |
Arrival
| Time | 2026-04-30 11:10 |
|---|---|
| Airport | Zürich Airport (LSZH) |
| Time | Latitude | Longitude | Altitude | Speed | Heading |
|---|---|---|---|---|---|
| 2026-04-30 10:31 | 51.22794 | 7.33483 | 16131 ft | 349 kts | 132° |
| 2026-04-30 10:31 | 51.21054 | 7.36211 | 16817 ft | 353 kts | 132° |
| 2026-04-30 10:31 | 51.19293 | 7.38973 | 17504 ft | 357 kts | 132° |
| 2026-04-30 10:31 | 51.17514 | 7.41772 | 18192 ft | 362 kts | 132° |
| 2026-04-30 10:32 | 51.15710 | 7.44601 | 18843 ft | 365 kts | 132° |
| 2026-04-30 10:32 | 51.13883 | 7.47438 | 19425 ft | 369 kts | 132° |
| 2026-04-30 10:32 | 51.12018 | 7.50292 | 19995 ft | 373 kts | 133° |
| 2026-04-30 10:32 | 51.10134 | 7.53158 | 20564 ft | 377 kts | 133° |
| 2026-04-30 10:33 | 51.08233 | 7.56054 | 21123 ft | 380 kts | 133° |
| 2026-04-30 10:33 | 51.06311 | 7.58980 | 21696 ft | 384 kts | 133° |
| 2026-04-30 10:33 | 51.04371 | 7.61924 | 22231 ft | 388 kts | 132° |
| 2026-04-30 10:33 | 51.02410 | 7.64897 | 22767 ft | 391 kts | 132° |
| 2026-04-30 10:34 | 51.00431 | 7.67898 | 23294 ft | 395 kts | 132° |
| 2026-04-30 10:34 | 50.98440 | 7.70921 | 23812 ft | 399 kts | 132° |
| 2026-04-30 10:34 | 50.96343 | 7.73858 | 24256 ft | 405 kts | 139° |
| 2026-04-30 10:34 | 50.93978 | 7.76356 | 24705 ft | 410 kts | 144° |
| 2026-04-30 10:35 | 50.91546 | 7.78739 | 25148 ft | 413 kts | 144° |
| 2026-04-30 10:35 | 50.89084 | 7.81128 | 25582 ft | 416 kts | 144° |
| 2026-04-30 10:35 | 50.86613 | 7.83536 | 26008 ft | 419 kts | 144° |
| 2026-04-30 10:35 | 50.84128 | 7.85967 | 26434 ft | 421 kts | 144° |
| 2026-04-30 10:36 | 50.81632 | 7.88423 | 26839 ft | 424 kts | 144° |
| 2026-04-30 10:36 | 50.79123 | 7.90882 | 27260 ft | 426 kts | 144° |
| 2026-04-30 10:36 | 50.76626 | 7.93319 | 27648 ft | 429 kts | 144° |
| 2026-04-30 10:36 | 50.74049 | 7.95833 | 28065 ft | 431 kts | 144° |
| 2026-04-30 10:37 | 50.71491 | 7.98330 | 28469 ft | 434 kts | 143° |
| 2026-04-30 10:37 | 50.68950 | 8.00811 | 28841 ft | 436 kts | 143° |
| 2026-04-30 10:37 | 50.66359 | 8.03338 | 29212 ft | 439 kts | 143° |
| 2026-04-30 10:37 | 50.63717 | 8.05911 | 29592 ft | 441 kts | 143° |
| 2026-04-30 10:38 | 50.61047 | 8.08181 | 30082 ft | 445 kts | 152° |
| 2026-04-30 10:38 | 50.58064 | 8.09608 | 30549 ft | 452 kts | 166° |
| 2026-04-30 10:38 | 50.54890 | 8.10176 | 30969 ft | 454 kts | 171° |
| 2026-04-30 10:38 | 50.51782 | 8.10532 | 31328 ft | 454 kts | 172° |
| 2026-04-30 10:39 | 50.48633 | 8.10889 | 31451 ft | 451 kts | 171° |
| 2026-04-30 10:39 | 50.45553 | 8.11261 | 31252 ft | 438 kts | 171° |
| 2026-04-30 10:39 | 50.42500 | 8.11651 | 30776 ft | 432 kts | 171° |
| 2026-04-30 10:39 | 50.39520 | 8.12041 | 30502 ft | 430 kts | 171° |
| 2026-04-30 10:40 | 50.33566 | 8.12816 | 30427 ft | 429 kts | 171° |
| 2026-04-30 10:40 | 50.27639 | 8.13587 | 30460 ft | 434 kts | 171° |
| 2026-04-30 10:41 | 50.21509 | 8.14393 | 30633 ft | 450 kts | 171° |
| 2026-04-30 10:41 | 50.18371 | 8.14798 | 30833 ft | 453 kts | 171° |
| 2026-04-30 10:41 | 50.15236 | 8.15336 | 31098 ft | 453 kts | 165° |
| 2026-04-30 10:42 | 50.12244 | 8.16719 | 31311 ft | 447 kts | 152° |
| 2026-04-30 10:42 | 50.09511 | 8.18968 | 31450 ft | 443 kts | 144° |
| 2026-04-30 10:42 | 50.04266 | 8.23949 | 31459 ft | 441 kts | 143° |
| 2026-04-30 10:43 | 49.98985 | 8.28893 | 31431 ft | 445 kts | 144° |
| 2026-04-30 10:43 | 49.93664 | 8.33800 | 31427 ft | 445 kts | 144° |
| 2026-04-30 10:44 | 49.88336 | 8.38688 | 31438 ft | 445 kts | 144° |
| 2026-04-30 10:44 | 49.83307 | 8.44100 | 31425 ft | 436 kts | 132° |
| 2026-04-30 10:45 | 49.78901 | 8.50545 | 31427 ft | 436 kts | 131° |
| 2026-04-30 10:45 | 49.74480 | 8.56966 | 31426 ft | 437 kts | 134° |
| 2026-04-30 10:46 | 49.72010 | 8.59744 | 31418 ft | 445 kts | 145° |
| 2026-04-30 10:46 | 49.69133 | 8.61641 | 31422 ft | 454 kts | 159° |
| 2026-04-30 10:46 | 49.62883 | 8.63482 | 31432 ft | 458 kts | 166° |
| 2026-04-30 10:47 | 49.56603 | 8.65138 | 31432 ft | 457 kts | 165° |
| 2026-04-30 10:47 | 49.50343 | 8.66861 | 31434 ft | 456 kts | 165° |
| 2026-04-30 10:48 | 49.45259 | 8.68782 | 31433 ft | 449 kts | 154° |
| 2026-04-30 10:48 | 49.42271 | 8.70249 | 31421 ft | 456 kts | 165° |
| 2026-04-30 10:48 | 49.39078 | 8.70486 | 31434 ft | 463 kts | 180° |
| 2026-04-30 10:49 | 49.32647 | 8.69580 | 31421 ft | 464 kts | 180° |
| 2026-04-30 10:49 | 49.26212 | 8.69072 | 31402 ft | 462 kts | 178° |
| 2026-04-30 10:50 | 49.19790 | 8.68743 | 31371 ft | 462 kts | 178° |
| 2026-04-30 10:50 | 49.13370 | 8.68407 | 31365 ft | 459 kts | 178° |
| 2026-04-30 10:51 | 49.07038 | 8.68072 | 31336 ft | 454 kts | 178° |
| 2026-04-30 10:51 | 49.03884 | 8.67908 | 30982 ft | 458 kts | 178° |
| 2026-04-30 10:51 | 49.00683 | 8.67742 | 30691 ft | 462 kts | 178° |
| 2026-04-30 10:52 | 48.97474 | 8.67573 | 30286 ft | 461 kts | 178° |
| 2026-04-30 10:52 | 48.94275 | 8.67407 | 29514 ft | 459 kts | 178° |
| 2026-04-30 10:52 | 48.91082 | 8.67241 | 28694 ft | 459 kts | 178° |
| 2026-04-30 10:52 | 48.87890 | 8.67075 | 27922 ft | 458 kts | 178° |
| 2026-04-30 10:53 | 48.84708 | 8.66908 | 27213 ft | 456 kts | 178° |
| 2026-04-30 10:53 | 48.81544 | 8.66747 | 26518 ft | 454 kts | 178° |
| 2026-04-30 10:53 | 48.78394 | 8.66586 | 25861 ft | 452 kts | 178° |
| 2026-04-30 10:53 | 48.75266 | 8.66425 | 25206 ft | 449 kts | 178° |
| 2026-04-30 10:54 | 48.72149 | 8.66263 | 24546 ft | 447 kts | 179° |
| 2026-04-30 10:54 | 48.69048 | 8.66104 | 23881 ft | 445 kts | 179° |
| 2026-04-30 10:54 | 48.65955 | 8.65945 | 23124 ft | 443 kts | 179° |
| 2026-04-30 10:54 | 48.62880 | 8.65781 | 22393 ft | 441 kts | 179° |
| 2026-04-30 10:55 | 48.59829 | 8.65616 | 21688 ft | 438 kts | 179° |
| 2026-04-30 10:55 | 48.56795 | 8.65455 | 21025 ft | 434 kts | 179° |
| 2026-04-30 10:55 | 48.53789 | 8.65302 | 20383 ft | 430 kts | 179° |
| 2026-04-30 10:55 | 48.50812 | 8.65149 | 19782 ft | 426 kts | 179° |
| 2026-04-30 10:56 | 48.47862 | 8.64998 | 19194 ft | 423 kts | 179° |
| 2026-04-30 10:56 | 48.44924 | 8.64845 | 18655 ft | 421 kts | 179° |
| 2026-04-30 10:56 | 48.42002 | 8.64695 | 18044 ft | 419 kts | 179° |
| 2026-04-30 10:56 | 48.39089 | 8.64538 | 17435 ft | 418 kts | 180° |
| 2026-04-30 10:57 | 48.36212 | 8.63960 | 16848 ft | 416 kts | 188° |
| 2026-04-30 10:57 | 48.33400 | 8.63097 | 16299 ft | 408 kts | 189° |
| 2026-04-30 10:57 | 48.30649 | 8.62242 | 15774 ft | 401 kts | 189° |
| 2026-04-30 10:57 | 48.27942 | 8.61406 | 15262 ft | 394 kts | 189° |
| 2026-04-30 10:58 | 48.25270 | 8.60593 | 14731 ft | 388 kts | 189° |
| 2026-04-30 10:58 | 48.22652 | 8.59805 | 14226 ft | 382 kts | 189° |
| 2026-04-30 10:58 | 48.20063 | 8.59031 | 13694 ft | 379 kts | 188° |
| 2026-04-30 10:58 | 48.17468 | 8.58255 | 13158 ft | 380 kts | 188° |
| 2026-04-30 10:59 | 48.14878 | 8.57484 | 12644 ft | 380 kts | 188° |
| 2026-04-30 10:59 | 48.12288 | 8.56710 | 12127 ft | 380 kts | 188° |
| 2026-04-30 10:59 | 48.09697 | 8.55937 | 11617 ft | 379 kts | 189° |
| 2026-04-30 10:59 | 48.07149 | 8.55170 | 11276 ft | 367 kts | 189° |
| 2026-04-30 11:00 | 48.04686 | 8.54429 | 11040 ft | 354 kts | 188° |
| 2026-04-30 11:00 | 48.02322 | 8.53731 | 10836 ft | 340 kts | 188° |
| 2026-04-30 11:00 | 48.00049 | 8.53064 | 10657 ft | 326 kts | 188° |
| 2026-04-30 11:00 | 47.97866 | 8.52419 | 10477 ft | 313 kts | 189° |
| 2026-04-30 11:01 | 47.95769 | 8.51796 | 10294 ft | 303 kts | 188° |
| 2026-04-30 11:01 | 47.93715 | 8.51185 | 9841 ft | 301 kts | 188° |
| 2026-04-30 11:01 | 47.91670 | 8.50567 | 9449 ft | 298 kts | 188° |
| 2026-04-30 11:01 | 47.89642 | 8.49952 | 8958 ft | 297 kts | 189° |
| 2026-04-30 11:02 | 47.87616 | 8.49339 | 8492 ft | 297 kts | 188° |
| 2026-04-30 11:02 | 47.85613 | 8.48732 | 8167 ft | 291 kts | 188° |
| 2026-04-30 11:02 | 47.83640 | 8.48138 | 7759 ft | 288 kts | 188° |
| 2026-04-30 11:02 | 47.81684 | 8.47551 | 7369 ft | 286 kts | 189° |
| 2026-04-30 11:03 | 47.79757 | 8.46981 | 7155 ft | 278 kts | 187° |
| 2026-04-30 11:03 | 47.77895 | 8.46435 | 7008 ft | 267 kts | 187° |
| 2026-04-30 11:03 | 47.76124 | 8.45904 | 6971 ft | 253 kts | 186° |
| 2026-04-30 11:04 | 47.72739 | 8.44892 | 6403 ft | 246 kts | 186° |
| 2026-04-30 11:04 | 47.71065 | 8.44392 | 6055 ft | 245 kts | 187° |
| 2026-04-30 11:04 | 47.69413 | 8.43796 | 5707 ft | 247 kts | 197° |
| 2026-04-30 11:04 | 47.67971 | 8.42400 | 5363 ft | 252 kts | 221° |
| 2026-04-30 11:05 | 47.66768 | 8.40496 | 5072 ft | 253 kts | 225° |
| 2026-04-30 11:05 | 47.65589 | 8.38547 | 4725 ft | 253 kts | 225° |
| 2026-04-30 11:05 | 47.64404 | 8.36652 | 4406 ft | 246 kts | 219° |
| 2026-04-30 11:05 | 47.62998 | 8.35446 | 4136 ft | 225 kts | 186° |
| 2026-04-30 11:06 | 47.61537 | 8.35598 | 3983 ft | 208 kts | 152° |
| 2026-04-30 11:06 | 47.60350 | 8.36744 | 3972 ft | 202 kts | 134° |
| 2026-04-30 11:06 | 47.59349 | 8.38168 | 3975 ft | 198 kts | 129° |
| 2026-04-30 11:06 | 47.58378 | 8.39637 | 3976 ft | 202 kts | 130° |
| 2026-04-30 11:07 | 47.57367 | 8.41099 | 3887 ft | 203 kts | 133° |
| 2026-04-30 11:07 | 47.56330 | 8.42530 | 3634 ft | 204 kts | 132° |
| 2026-04-30 11:07 | 47.55293 | 8.43949 | 3402 ft | 202 kts | 132° |
| 2026-04-30 11:07 | 47.54280 | 8.45332 | 3209 ft | 192 kts | 133° |
| 2026-04-30 11:08 | 47.53346 | 8.46605 | 2955 ft | 171 kts | 132° |
| 2026-04-30 11:08 | 47.52509 | 8.47749 | 2682 ft | 157 kts | 132° |
| 2026-04-30 11:08 | 47.51757 | 8.48775 | 2417 ft | 139 kts | 130° |
| 2026-04-30 11:08 | 47.51046 | 8.49748 | 2219 ft | 140 kts | 129° |
| 2026-04-30 11:09 | 47.50334 | 8.50717 | 2025 ft | 137 kts | 129° |
| 2026-04-30 11:09 | 47.49636 | 8.51669 | 1837 ft | 136 kts | 129° |
| 2026-04-30 11:09 | 47.48936 | 8.52619 | 1647 ft | 137 kts | 129° |
| 2026-04-30 11:09 | 47.48229 | 8.53566 | 1463 ft | 137 kts | 129° |
| 2026-04-30 11:10 | 47.47576 | 8.54502 | 1399 ft | 116 kts | 137° |
| 2026-04-30 11:10 | 47.47107 | 8.55128 | 1393 ft | 66 kts | 137° |
| 2026-04-30 11:10 | 47.46801 | 8.55543 | 1398 ft | 55 kts | 139° |
| 2026-04-30 11:10 | 47.46546 | 8.55692 | 1402 ft | 19 kts | 165° |
| 2026-04-30 11:11 | 47.46412 | 8.55749 | 1405 ft | 21 kts | 163° |
| 2026-04-30 11:11 | 47.46290 | 8.55884 | 1410 ft | 23 kts | 136° |
| 2026-04-30 11:11 | 47.46183 | 8.56030 | 1414 ft | 22 kts | 139° |
| 2026-04-30 11:11 | 47.46111 | 8.56001 | 1412 ft | 13 kts | 201° |
| 2026-04-30 11:12 | 47.46015 | 8.55982 | 1412 ft | 15 kts | 188° |
| 2026-04-30 11:12 | 47.45910 | 8.55940 | 1412 ft | 17 kts | 198° |
| 2026-04-30 11:12 | 47.45790 | 8.55881 | 1416 ft | 19 kts | 196° |
| 2026-04-30 11:12 | 47.45656 | 8.55847 | 1417 ft | 21 kts | 224° |
| 2026-04-30 11:13 | 47.45655 | 8.55644 | 1410 ft | 21 kts | 278° |
| 2026-04-30 11:13 | 47.45671 | 8.55458 | 1407 ft | 18 kts | 272° |
| 2026-04-30 11:13 | 47.45613 | 8.55337 | 1408 ft | 19 kts | 150° |
| 2026-04-30 11:13 | 47.45537 | 8.55401 | 1411 ft | 7 kts | 151° |
| 2026-04-30 11:14 | 47.45483 | 8.55441 | 1414 ft | 10 kts | 155° |
| 2026-04-30 11:14 | 47.45409 | 8.55487 | 1411 ft | 13 kts | 157° |
| 2026-04-30 11:14 | 47.45319 | 8.55542 | 1411 ft | 14 kts | 155° |
| 2026-04-30 11:14 | 47.45272 | 8.55623 | 1415 ft | 8 kts | 99° |
| 2026-04-30 11:15 | 47.45317 | 8.55645 | 1412 ft | 9 kts | 356° |
| 2026-04-30 11:15 | 47.45347 | 8.55647 | 1416 ft | 2 kts | 6° |
| 2026-04-30 11:15 | 47.45349 | 8.55647 | 1415 ft | 0 kts | 6° |